createdAt,value
2019-02-19T00:02:48.386Z,96369.44
2019-02-19T00:05:38.606Z,96348.97
2019-02-19T00:08:28.692Z,96365.45
2019-02-19T00:11:18.564Z,96369.63
2019-02-19T00:14:08.828Z,96372.47
2019-02-19T00:16:58.716Z,96377.45
2019-02-19T00:19:48.546Z,96377.86
2019-02-19T00:22:38.342Z,96378.37
2019-02-19T00:25:28.148Z,96377.70
2019-02-19T00:28:17.940Z,96374.44
2019-02-19T00:31:07.736Z,96376.29
2019-02-19T00:33:57.654Z,96338.66
2019-02-19T00:36:47.550Z,96369.06
2019-02-19T00:39:37.478Z,96377.09
2019-02-19T00:42:27.278Z,96377.09
2019-02-19T00:45:17.163Z,96361.47
2019-02-19T00:48:06.894Z,96379.25
2019-02-19T00:50:57.064Z,96373.07
2019-02-19T00:53:46.812Z,96374.46
2019-02-19T00:56:36.620Z,96374.97
2019-02-19T00:59:26.397Z,96378.02
2019-02-19T01:02:16.200Z,96377.66
2019-02-19T01:05:06.416Z,96380.37
2019-02-19T01:07:56.574Z,96385.75
2019-02-19T01:10:59.818Z,96383.17
2019-02-19T01:13:30.210Z,96384.53
2019-02-19T01:16:20.794Z,96381.83
2019-02-19T01:19:02.828Z,96383.06
2019-02-19T01:21:52.636Z,96384.76
2019-02-19T01:24:42.442Z,96381.27
2019-02-19T01:27:32.198Z,96353.98
2019-02-19T01:30:22.228Z,96378.34
2019-02-19T01:33:11.975Z,96351.95
2019-02-19T01:36:01.775Z,96382.73
2019-02-19T01:38:51.569Z,96359.51
2019-02-19T01:41:41.453Z,96378.34
2019-02-19T01:44:31.678Z,96386.32
2019-02-19T01:47:21.374Z,96386.80
2019-02-19T01:53:17.029Z,96388.46
2019-02-19T01:56:03.303Z,96392.94
2019-02-19T01:58:45.389Z,96393.03
2019-02-19T02:01:35.198Z,96399.53
2019-02-19T02:04:25.292Z,96400.27
2019-02-19T02:07:15.079Z,96397.11
2019-02-19T02:10:16.807Z,96389.00
2019-02-19T02:12:59.443Z,96368.81
2019-02-19T02:15:49.173Z,96392.97
2019-02-19T02:18:31.327Z,96399.17
2019-02-19T02:21:21.036Z,96390.08
2019-02-19T02:24:03.867Z,96379.41
2019-02-19T02:26:53.595Z,96384.56
2019-02-19T02:29:35.977Z,96386.70
2019-02-19T02:32:25.747Z,96388.75
2019-02-19T02:35:08.027Z,96386.34
2019-02-19T02:37:57.725Z,96386.59
2019-02-19T02:40:39.968Z,96393.83
2019-02-19T02:43:29.681Z,96392.38
2019-02-19T02:46:12.000Z,96367.05
2019-02-19T02:49:01.704Z,96375.52
2019-02-19T02:51:44.404Z,96389.94
2019-02-19T02:54:34.170Z,96386.44
2019-02-19T02:57:16.272Z,96394.20
2019-02-19T03:03:01.348Z,96384.53
2019-02-19T03:06:20.181Z,96383.06
2019-02-19T03:09:10.026Z,96374.97
2019-02-19T03:11:59.735Z,96376.06
2019-02-19T03:14:42.412Z,96372.37
2019-02-19T03:17:32.216Z,96374.70
2019-02-19T03:20:21.964Z,96371.56
2019-02-19T03:23:11.700Z,96364.20
2019-02-19T03:26:01.475Z,96364.57
2019-02-19T03:28:51.228Z,96360.67
2019-02-19T03:31:41.138Z,96369.91
2019-02-19T03:34:30.878Z,96373.24
2019-02-19T03:37:20.586Z,96375.78
2019-02-19T03:40:10.342Z,96387.26
2019-02-19T03:42:53.164Z,96381.09
2019-02-19T03:45:42.902Z,96389.86
2019-02-19T03:48:32.598Z,96390.78
2019-02-19T03:51:03.287Z,96393.05
2019-02-19T03:53:53.027Z,96393.28
2019-02-19T03:56:35.089Z,96388.67
2019-02-19T03:59:24.813Z,96392.30
2019-02-19T04:02:07.079Z,96394.10
2019-02-19T04:04:56.820Z,96399.64
2019-02-19T04:07:39.418Z,96399.05
2019-02-19T04:13:30.948Z,96407.02
2019-02-19T04:16:01.624Z,96409.73
2019-02-19T04:18:51.343Z,96409.79
2019-02-19T04:21:41.090Z,96407.12
2019-02-19T04:24:30.917Z,96384.93
2019-02-19T04:27:20.728Z,96400.52
2019-02-19T04:30:10.634Z,96402.92
2019-02-19T04:33:00.336Z,96409.88
2019-02-19T04:35:30.986Z,96414.56
2019-02-19T04:38:20.706Z,96407.80
2019-02-19T04:41:10.441Z,96395.06
2019-02-19T04:43:52.824Z,96416.73
2019-02-19T04:46:42.570Z,96423.96
2019-02-19T04:49:25.019Z,96422.05
2019-02-19T04:52:07.983Z,96419.13
2019-02-19T04:54:57.765Z,96422.63
2019-02-19T04:57:28.505Z,96420.72
2019-02-19T05:00:18.245Z,96421.28
2019-02-19T05:03:00.465Z,96417.59
2019-02-19T05:05:50.168Z,96394.34
2019-02-19T05:08:33.009Z,96395.13
2019-02-19T05:11:22.783Z,96421.39
2019-02-19T05:14:12.594Z,96419.73
2019-02-19T05:17:02.355Z,96423.66
2019-02-19T05:19:52.098Z,96419.25
2019-02-19T05:22:41.842Z,96422.20
2019-02-19T05:25:24.175Z,96422.33
2019-02-19T05:28:14.065Z,96416.84
2019-02-19T05:31:03.787Z,96419.30
2019-02-19T05:33:45.811Z,96420.11
2019-02-19T05:36:35.679Z,96414.82
2019-02-19T05:39:25.443Z,96400.91
2019-02-19T05:42:34.325Z,96416.85
2019-02-19T05:45:16.267Z,96421.81
2019-02-19T05:48:06.119Z,96399.59
2019-02-19T05:50:55.997Z,96412.84
2019-02-19T05:53:38.837Z,96420.03
2019-02-19T05:56:28.618Z,96413.95
2019-02-19T06:02:12.186Z,96413.63
2019-02-19T06:05:02.071Z,96413.41
2019-02-19T06:13:32.963Z,96415.62
2019-02-19T06:16:15.183Z,96420.94
2019-02-19T06:19:05.076Z,96426.98
2019-02-19T06:21:54.819Z,96413.05
2019-02-19T06:24:44.609Z,96413.95
2019-02-19T06:27:34.502Z,96402.41
2019-02-19T06:30:43.382Z,96428.33
2019-02-19T06:36:27.375Z,96433.72
2019-02-19T06:39:17.154Z,96443.16
2019-02-19T06:42:06.955Z,96444.39
2019-02-19T06:44:56.675Z,96445.39
2019-02-19T06:47:39.075Z,96445.86
2019-02-19T06:50:28.825Z,96457.42
2019-02-19T06:53:18.562Z,96434.95
2019-02-19T06:56:00.862Z,96462.14
2019-02-19T06:58:42.901Z,96472.26
2019-02-19T07:02:10.552Z,96469.00
2019-02-19T07:07:57.670Z,96476.81
2019-02-19T07:13:48.571Z,96482.65
2019-02-19T07:16:38.291Z,96482.21
2019-02-19T07:19:20.542Z,96488.96
2019-02-19T07:22:10.275Z,96487.25
2019-02-19T07:24:53.124Z,96482.52
2019-02-19T07:27:42.850Z,96485.52
2019-02-19T07:30:25.368Z,96483.16
2019-02-19T07:36:09.882Z,96457.16
2019-02-19T07:38:59.714Z,96487.82
2019-02-19T07:41:49.500Z,96490.30
2019-02-19T07:44:39.294Z,96493.53
2019-02-19T07:47:29.010Z,96490.94
2019-02-19T07:50:10.988Z,96490.05
2019-02-19T07:53:13.218Z,96496.22
2019-02-19T07:55:55.528Z,96493.27
2019-02-19T07:58:45.240Z,96487.61
2019-02-19T08:01:28.890Z,96473.61
2019-02-19T08:04:18.618Z,96477.73
2019-02-19T08:07:00.929Z,96489.75
2019-02-19T08:09:50.722Z,96475.80
2019-02-19T08:12:32.734Z,96465.19
2019-02-19T08:15:22.612Z,96475.37
2019-02-19T08:20:49.390Z,96493.26
2019-02-19T08:23:20.018Z,96494.45
2019-02-19T08:26:09.758Z,96500.88
2019-02-19T08:29:11.391Z,96509.48
2019-02-19T08:31:43.328Z,96506.34
2019-02-19T08:34:51.850Z,96502.48
2019-02-19T08:37:35.189Z,96502.72
2019-02-19T08:40:44.000Z,96509.27
2019-02-19T08:43:30.162Z,96507.55
2019-02-19T08:46:19.930Z,96512.34
2019-02-19T08:49:02.491Z,96491.62
2019-02-19T08:51:56.061Z,96510.82
2019-02-19T08:54:36.587Z,96511.29
2019-02-19T08:57:26.328Z,96517.37
2019-02-19T09:00:16.119Z,96495.25
2019-02-19T09:03:06.078Z,96510.05
2019-02-19T09:05:48.812Z,96506.02
2019-02-19T09:08:38.531Z,96508.49
2019-02-19T09:11:21.139Z,96507.14
2019-02-19T09:14:30.155Z,96509.23
2019-02-19T09:17:12.772Z,96485.83
2019-02-19T09:20:02.467Z,96509.36
2019-02-19T09:22:44.420Z,96518.47
2019-02-19T09:25:34.115Z,96489.00
2019-02-19T09:28:16.615Z,96513.52
2019-02-19T09:31:06.330Z,96518.77
2019-02-19T09:33:48.499Z,96513.48
2019-02-19T09:36:38.193Z,96518.17
2019-02-19T09:39:20.513Z,96523.64
2019-02-19T09:42:10.193Z,96521.33
2019-02-19T09:44:54.355Z,96514.20
2019-02-19T09:47:44.055Z,96495.67
2019-02-19T09:50:26.229Z,96520.74
2019-02-19T09:53:15.958Z,96520.52
2019-02-19T09:55:58.633Z,96494.61
2019-02-19T09:58:41.505Z,96517.69
2019-02-19T10:01:31.279Z,96517.13
2019-02-19T10:04:20.989Z,96517.23
2019-02-19T10:07:03.464Z,96519.74
2019-02-19T10:09:53.373Z,96525.58
2019-02-19T10:12:43.182Z,96525.59
2019-02-19T10:15:33.490Z,96522.99
2019-02-19T10:18:23.209Z,96527.97
2019-02-19T10:21:05.605Z,96521.14
2019-02-19T10:30:05.003Z,96508.52
2019-02-19T10:32:47.657Z,96530.48
2019-02-19T10:35:37.441Z,96529.76
2019-02-19T10:38:27.195Z,96540.63
2019-02-19T10:41:09.527Z,96539.48
2019-02-19T10:43:59.313Z,96513.66
2019-02-19T10:46:49.071Z,96516.00
2019-02-19T10:49:38.773Z,96538.55
2019-02-19T10:52:20.863Z,96533.31
2019-02-19T10:55:10.721Z,96527.89
2019-02-19T10:58:00.524Z,96530.80
2019-02-19T11:00:50.249Z,96528.30
2019-02-19T11:03:34.167Z,96525.97
2019-02-19T11:06:23.975Z,96527.93
2019-02-19T11:09:13.773Z,96517.80
2019-02-19T11:12:22.634Z,96513.14
2019-02-19T11:15:25.180Z,96514.30
2019-02-19T11:18:07.582Z,96506.48
2019-02-19T11:20:57.411Z,96502.00
2019-02-19T11:23:40.207Z,96491.86
2019-02-19T11:26:29.921Z,96483.45
2019-02-19T11:29:12.526Z,96469.59
2019-02-19T11:32:02.280Z,96501.63
2019-02-19T11:34:44.403Z,96497.52
2019-02-19T11:37:27.220Z,96477.95
2019-02-19T11:40:16.994Z,96495.50
2019-02-19T11:46:10.458Z,96479.86
2019-02-19T11:48:52.978Z,96478.66
2019-02-19T11:51:42.694Z,96462.23
2019-02-19T11:54:32.414Z,96450.49
2019-02-19T11:57:14.482Z,96473.30
2019-02-19T12:00:04.630Z,96463.63
2019-02-19T12:02:54.416Z,96464.67
2019-02-19T12:05:44.206Z,96462.66
2019-02-19T12:08:38.962Z,96453.80
2019-02-19T12:11:18.272Z,96428.29
2019-02-19T12:14:08.203Z,96456.70
2019-02-19T12:16:57.997Z,96453.19
2019-02-19T12:19:47.768Z,96434.03
2019-02-19T12:22:30.130Z,96443.72
2019-02-19T12:25:19.944Z,96427.75
2019-02-19T12:28:09.730Z,96439.23
2019-02-19T12:31:18.568Z,96426.16
2019-02-19T12:36:45.285Z,96421.06
2019-02-19T12:39:35.020Z,96425.11
2019-02-19T12:42:17.047Z,96420.86
2019-02-19T12:45:07.212Z,96423.22
2019-02-19T12:47:49.182Z,96415.52
2019-02-19T12:50:38.885Z,96411.21
2019-02-19T12:53:21.452Z,96412.93
2019-02-19T12:56:30.284Z,96418.76
2019-02-19T12:59:12.741Z,96411.48
2019-02-19T13:02:02.472Z,96411.86
2019-02-19T13:04:45.360Z,96384.72
2019-02-19T13:07:54.148Z,96407.43
2019-02-19T13:10:36.552Z,96400.52
2019-02-19T13:13:26.274Z,96390.35
2019-02-19T13:16:08.548Z,96400.47
2019-02-19T13:19:03.596Z,96406.44
2019-02-19T13:21:43.014Z,96380.61
2019-02-19T13:24:34.784Z,96378.52
2019-02-19T13:27:17.143Z,96390.75
2019-02-19T13:30:10.464Z,96390.13
2019-02-19T13:32:52.463Z,96385.64
2019-02-19T13:35:42.164Z,96385.81
2019-02-19T13:38:24.811Z,96396.33
2019-02-19T13:41:33.649Z,96396.77
2019-02-19T13:44:16.173Z,96392.10
2019-02-19T13:47:05.895Z,96391.09
2019-02-19T13:49:48.079Z,96395.88
2019-02-19T13:52:56.744Z,96395.87
2019-02-19T13:55:41.983Z,96387.17
2019-02-19T13:58:31.730Z,96393.47
2019-02-19T14:01:02.452Z,96389.14
2019-02-19T14:03:52.171Z,96387.81
2019-02-19T14:06:34.463Z,96384.13
2019-02-19T14:09:24.192Z,96388.77
2019-02-19T14:12:06.351Z,96385.09
2019-02-19T14:15:14.915Z,96374.99
2019-02-19T14:17:58.392Z,96389.14
2019-02-19T14:21:06.914Z,96389.65
2019-02-19T14:24:07.933Z,96384.95
2019-02-19T14:27:18.727Z,96390.44
2019-02-19T14:33:48.813Z,96380.39
2019-02-19T14:36:44.719Z,96378.78
2019-02-19T14:42:30.313Z,96374.69
2019-02-19T14:45:38.847Z,96373.55
2019-02-19T14:48:40.137Z,96375.21
2019-02-19T14:51:48.831Z,96372.82
2019-02-19T14:54:51.258Z,96347.38
2019-02-19T14:57:59.841Z,96371.99
2019-02-19T15:01:01.553Z,96372.91
2019-02-19T15:04:10.109Z,96367.66
2019-02-19T15:07:13.570Z,96374.09
2019-02-19T15:13:17.866Z,96372.58
2019-02-19T15:16:26.434Z,96378.05
2019-02-19T15:19:39.190Z,96374.53
2019-02-19T15:22:29.631Z,96372.95
2019-02-19T15:25:38.290Z,96376.89
2019-02-19T15:28:46.904Z,96379.05
2019-02-19T15:32:03.495Z,96367.31
2019-02-19T15:35:12.112Z,96368.10
2019-02-19T15:38:29.032Z,96350.19
2019-02-19T15:41:30.376Z,96362.09
2019-02-19T15:44:38.910Z,96359.77
2019-02-19T15:47:47.472Z,96356.78
2019-02-19T15:50:48.490Z,96358.31
2019-02-19T15:53:57.120Z,96352.52
2019-02-19T15:57:05.802Z,96350.95
2019-02-19T16:00:07.268Z,96352.77
2019-02-19T16:03:15.899Z,96341.30
2019-02-19T16:06:24.506Z,96346.37
2019-02-19T16:09:33.109Z,96348.55
2019-02-19T16:12:29.748Z,96353.98
2019-02-19T16:18:53.565Z,96344.44
2019-02-19T16:21:54.788Z,96345.05
2019-02-19T16:25:03.640Z,96347.22
2019-02-19T16:28:12.208Z,96343.11
2019-02-19T16:31:20.838Z,96341.16
2019-02-19T16:34:18.725Z,96341.18
2019-02-19T16:37:27.510Z,96336.89
2019-02-19T16:43:32.456Z,96330.83
2019-02-19T16:49:26.712Z,96309.55
2019-02-19T16:52:35.382Z,96337.84
2019-02-19T16:55:44.004Z,96336.86
2019-02-19T16:58:52.798Z,96338.22
2019-02-19T17:01:54.210Z,96351.66
2019-02-19T17:04:52.552Z,96348.33
2019-02-19T17:07:58.086Z,96350.02
2019-02-19T17:11:06.656Z,96362.85
2019-02-19T17:14:08.059Z,96369.83
2019-02-19T17:17:09.551Z,96364.70
2019-02-19T17:20:26.351Z,96372.33
2019-02-19T17:23:20.830Z,96376.14
2019-02-19T17:26:29.420Z,96352.66
2019-02-19T17:29:34.806Z,96379.39
2019-02-19T17:33:02.535Z,96387.39
2019-02-19T17:36:03.793Z,96381.15
2019-02-19T17:39:12.569Z,96389.88
2019-02-19T17:45:38.729Z,96367.77
2019-02-19T17:48:47.267Z,96396.27
2019-02-19T17:51:48.315Z,96371.42
2019-02-19T17:57:52.591Z,96378.02
2019-02-19T18:01:01.191Z,96383.83
2019-02-19T18:07:24.629Z,96401.25
2019-02-19T18:10:33.303Z,96402.43
2019-02-19T18:13:42.079Z,96402.31
2019-02-19T18:16:50.798Z,96407.63
2019-02-19T18:19:34.727Z,96404.91
2019-02-19T18:22:17.696Z,96406.98
2019-02-19T18:25:00.611Z,96410.28
2019-02-19T18:27:50.463Z,96414.73
2019-02-19T18:30:33.029Z,96414.69
2019-02-19T18:33:22.853Z,96426.19
2019-02-19T18:36:24.334Z,96425.36
2019-02-19T18:39:06.924Z,96432.27
2019-02-19T18:41:56.673Z,96437.94
2019-02-19T18:44:39.247Z,96440.99
2019-02-19T18:47:29.202Z,96435.55
2019-02-19T18:50:18.981Z,96438.93
2019-02-19T18:53:08.907Z,96435.84
2019-02-19T18:55:58.679Z,96438.00
2019-02-19T18:58:48.469Z,96443.64
2019-02-19T19:01:38.309Z,96443.20
2019-02-19T19:04:28.091Z,96442.84
2019-02-19T19:07:17.899Z,96443.63
2019-02-19T19:10:08.682Z,96452.89
2019-02-19T19:12:58.464Z,96446.23
2019-02-19T19:18:52.107Z,96449.47
2019-02-19T19:21:34.495Z,96445.19
2019-02-19T19:24:24.467Z,96448.75
2019-02-19T19:27:14.223Z,96455.16
2019-02-19T19:30:22.843Z,96436.72
2019-02-19T19:33:12.722Z,96460.85
2019-02-19T19:35:55.816Z,96472.98
2019-02-19T19:41:47.264Z,96471.41
2019-02-19T19:44:37.024Z,96468.75
2019-02-19T19:47:23.172Z,96469.83
2019-02-19T19:50:12.960Z,96471.03
2019-02-19T19:52:55.118Z,96467.48
2019-02-19T19:55:44.882Z,96464.87
2019-02-19T19:58:31.766Z,96461.68
2019-02-19T20:01:21.520Z,96447.88
2019-02-19T20:04:11.252Z,96456.30
2019-02-19T20:06:53.844Z,96468.59
2019-02-19T20:10:02.356Z,96469.36
2019-02-19T20:12:52.150Z,96475.02
2019-02-19T20:15:34.421Z,96471.48
2019-02-19T20:18:17.218Z,96469.84
2019-02-19T20:21:26.467Z,96468.16
2019-02-19T20:24:04.124Z,96477.00
2019-02-19T20:26:53.848Z,96475.00
2019-02-19T20:29:36.286Z,96478.44
2019-02-19T20:32:26.011Z,96485.55
2019-02-19T20:35:08.439Z,96471.17
2019-02-19T20:37:58.168Z,96500.17
2019-02-19T20:40:40.446Z,96494.98
2019-02-19T20:46:31.460Z,96496.69
2019-02-19T20:49:21.246Z,96497.94
2019-02-19T20:52:03.850Z,96501.19
2019-02-19T20:54:53.590Z,96504.05
2019-02-19T20:57:37.228Z,96500.42
2019-02-19T21:00:46.094Z,96504.91
2019-02-19T21:03:30.533Z,96504.42
2019-02-19T21:06:20.341Z,96507.38
2019-02-19T21:09:07.205Z,96476.18
2019-02-19T21:11:56.937Z,96500.88
2019-02-19T21:14:43.828Z,96491.25
2019-02-19T21:17:33.592Z,96494.77
2019-02-19T21:20:17.763Z,96492.18
2019-02-19T21:26:02.533Z,96499.68
2019-02-19T21:29:11.453Z,96502.23
2019-02-19T21:31:53.916Z,96500.31
2019-02-19T21:34:43.636Z,96497.68
2019-02-19T21:37:33.496Z,96496.55
2019-02-19T21:40:23.204Z,96491.39
2019-02-19T21:43:05.272Z,96469.21
2019-02-19T21:46:14.090Z,96488.69
2019-02-19T21:48:56.747Z,96479.55
2019-02-19T21:51:53.955Z,96462.61
2019-02-19T21:54:30.429Z,96490.02
2019-02-19T21:57:20.160Z,96489.37
2019-02-19T22:00:02.840Z,96495.80
2019-02-19T22:02:52.582Z,96495.16
2019-02-19T22:05:35.123Z,96496.79
2019-02-19T22:08:24.942Z,96492.88
2019-02-19T22:11:14.963Z,96495.44
2019-02-19T22:14:24.129Z,96500.16
2019-02-19T22:17:07.172Z,96505.34
2019-02-19T22:20:02.848Z,96497.22
2019-02-19T22:22:41.407Z,96479.37
2019-02-19T22:25:31.287Z,96501.70
2019-02-19T22:28:22.856Z,96474.38
2019-02-19T22:31:05.735Z,96501.05
2019-02-19T22:33:55.510Z,96501.84
2019-02-19T22:36:45.260Z,96482.19
2019-02-19T22:39:34.987Z,96509.97
2019-02-19T22:42:24.771Z,96506.38
2019-02-19T22:45:14.547Z,96481.36
2019-02-19T22:48:00.555Z,96510.24
2019-02-19T22:50:50.333Z,96505.64
2019-02-19T22:59:47.568Z,96485.99
2019-02-19T23:02:32.393Z,96490.91
2019-02-19T23:05:22.543Z,96511.88
2019-02-19T23:08:05.027Z,96515.52
2019-02-19T23:10:54.977Z,96517.02
2019-02-19T23:13:38.551Z,96514.59
2019-02-19T23:16:28.503Z,96515.38
2019-02-19T23:19:10.725Z,96519.92
2019-02-19T23:22:00.573Z,96517.02
2019-02-19T23:24:42.979Z,96525.29
2019-02-19T23:27:33.067Z,96528.70
2019-02-19T23:30:15.389Z,96498.76
2019-02-19T23:33:05.575Z,96506.97
2019-02-19T23:36:14.658Z,96528.27
2019-02-19T23:41:59.490Z,96531.64
2019-02-19T23:44:41.907Z,96527.16
2019-02-19T23:47:31.615Z,96501.51
2019-02-19T23:50:14.317Z,96524.13
2019-02-19T23:52:57.301Z,96527.42
2019-02-19T23:55:47.110Z,96526.20
2019-02-19T23:58:36.926Z,96529.91
